sensor_id;sensor_type;location;lat;lon;timestamp;P1;durP1;ratioP1;P2;durP2;ratioP2
11447;SDS011;43755;49.736;8.734;2023-04-06T00:02:00;6.50;;;5.00;;
11447;SDS011;43755;49.736;8.734;2023-04-06T00:04:02;7.10;;;5.45;;
11447;SDS011;43755;49.736;8.734;2023-04-06T00:06:05;6.97;;;5.07;;
11447;SDS011;43755;49.736;8.734;2023-04-06T00:08:07;6.38;;;5.78;;
11447;SDS011;43755;49.736;8.734;2023-04-06T00:10:09;5.95;;;5.22;;
11447;SDS011;43755;49.736;8.734;2023-04-06T00:12:11;6.30;;;5.70;;
11447;SDS011;43755;49.736;8.734;2023-04-06T00:14:12;8.38;;;5.05;;
11447;SDS011;43755;49.736;8.734;2023-04-06T00:16:17;6.30;;;5.70;;
11447;SDS011;43755;49.736;8.734;2023-04-06T00:18:19;5.93;;;5.28;;
11447;SDS011;43755;49.736;8.734;2023-04-06T00:20:20;7.38;;;6.00;;
11447;SDS011;43755;49.736;8.734;2023-04-06T00:22:23;8.90;;;7.43;;
11447;SDS011;43755;49.736;8.734;2023-04-06T00:24:25;7.85;;;6.75;;
11447;SDS011;43755;49.736;8.734;2023-04-06T00:26:26;7.47;;;6.43;;
11447;SDS011;43755;49.736;8.734;2023-04-06T00:28:28;6.93;;;6.22;;
11447;SDS011;43755;49.736;8.734;2023-04-06T00:30:30;7.93;;;6.28;;
11447;SDS011;43755;49.736;8.734;2023-04-06T00:32:31;8.80;;;6.53;;
11447;SDS011;43755;49.736;8.734;2023-04-06T00:34:33;7.72;;;6.25;;
11447;SDS011;43755;49.736;8.734;2023-04-06T00:36:34;6.88;;;6.05;;
11447;SDS011;43755;49.736;8.734;2023-04-06T00:38:37;7.70;;;6.30;;
11447;SDS011;43755;49.736;8.734;2023-04-06T00:40:39;6.15;;;5.53;;
11447;SDS011;43755;49.736;8.734;2023-04-06T00:42:40;6.65;;;5.72;;
11447;SDS011;43755;49.736;8.734;2023-04-06T00:44:42;7.30;;;5.55;;
11447;SDS011;43755;49.736;8.734;2023-04-06T00:46:44;6.63;;;5.93;;
11447;SDS011;43755;49.736;8.734;2023-04-06T00:48:45;6.43;;;5.80;;
11447;SDS011;43755;49.736;8.734;2023-04-06T00:50:47;6.28;;;5.53;;
11447;SDS011;43755;49.736;8.734;2023-04-06T00:52:48;6.55;;;5.68;;
11447;SDS011;43755;49.736;8.734;2023-04-06T00:54:51;6.45;;;5.85;;
11447;SDS011;43755;49.736;8.734;2023-04-06T00:56:53;6.30;;;5.63;;
11447;SDS011;43755;49.736;8.734;2023-04-06T00:58:55;6.70;;;6.07;;
11447;SDS011;43755;49.736;8.734;2023-04-06T01:00:57;7.72;;;5.75;;
11447;SDS011;43755;49.736;8.734;2023-04-06T01:02:59;6.25;;;5.65;;
11447;SDS011;43755;49.736;8.734;2023-04-06T01:05:01;8.30;;;6.38;;
11447;SDS011;43755;49.736;8.734;2023-04-06T01:07:02;6.20;;;5.60;;
11447;SDS011;43755;49.736;8.734;2023-04-06T01:09:04;7.07;;;6.38;;
11447;SDS011;43755;49.736;8.734;2023-04-06T01:11:07;6.45;;;5.82;;
11447;SDS011;43755;49.736;8.734;2023-04-06T01:13:08;7.07;;;6.05;;
11447;SDS011;43755;49.736;8.734;2023-04-06T01:15:10;7.28;;;6.03;;
11447;SDS011;43755;49.736;8.734;2023-04-06T01:17:12;6.95;;;5.93;;
11447;SDS011;43755;49.736;8.734;2023-04-06T01:19:13;6.05;;;5.45;;
11447;SDS011;43755;49.736;8.734;2023-04-06T01:21:15;6.43;;;5.82;;
11447;SDS011;43755;49.736;8.734;2023-04-06T01:23:18;6.13;;;5.53;;
11447;SDS011;43755;49.736;8.734;2023-04-06T01:25:19;6.20;;;5.60;;
11447;SDS011;43755;49.736;8.734;2023-04-06T01:27:21;6.60;;;6.00;;
11447;SDS011;43755;49.736;8.734;2023-04-06T01:29:22;6.63;;;6.03;;
11447;SDS011;43755;49.736;8.734;2023-04-06T01:31:24;6.93;;;5.60;;
11447;SDS011;43755;49.736;8.734;2023-04-06T01:33:26;7.60;;;6.00;;
11447;SDS011;43755;49.736;8.734;2023-04-06T01:35:27;6.32;;;5.70;;
11447;SDS011;43755;49.736;8.734;2023-04-06T01:37:30;6.50;;;5.60;;
11447;SDS011;43755;49.736;8.734;2023-04-06T01:39:33;6.70;;;6.00;;
11447;SDS011;43755;49.736;8.734;2023-04-06T01:41:35;6.03;;;5.53;;
11447;SDS011;43755;49.736;8.734;2023-04-06T01:43:37;8.38;;;6.82;;
11447;SDS011;43755;49.736;8.734;2023-04-06T01:45:38;7.22;;;6.53;;
11447;SDS011;43755;49.736;8.734;2023-04-06T01:47:40;6.95;;;6.35;;
11447;SDS011;43755;49.736;8.734;2023-04-06T01:49:41;7.05;;;6.35;;
11447;SDS011;43755;49.736;8.734;2023-04-06T01:51:43;6.13;;;5.55;;
11447;SDS011;43755;49.736;8.734;2023-04-06T01:53:44;8.07;;;5.80;;
11447;SDS011;43755;49.736;8.734;2023-04-06T01:55:47;6.22;;;5.43;;
11447;SDS011;43755;49.736;8.734;2023-04-06T01:57:49;7.53;;;5.63;;
11447;SDS011;43755;49.736;8.734;2023-04-06T01:59:50;6.88;;;5.43;;
11447;SDS011;43755;49.736;8.734;2023-04-06T02:01:52;6.53;;;5.93;;
11447;SDS011;43755;49.736;8.734;2023-04-06T02:03:53;6.30;;;5.70;;
11447;SDS011;43755;49.736;8.734;2023-04-06T02:05:55;6.07;;;5.47;;
11447;SDS011;43755;49.736;8.734;2023-04-06T02:07:56;6.93;;;5.95;;
11447;SDS011;43755;49.736;8.734;2023-04-06T02:09:58;6.90;;;6.15;;
11447;SDS011;43755;49.736;8.734;2023-04-06T02:12:01;7.88;;;6.32;;
11447;SDS011;43755;49.736;8.734;2023-04-06T02:14:02;6.28;;;5.68;;
11447;SDS011;43755;49.736;8.734;2023-04-06T02:16:05;7.63;;;6.28;;
11447;SDS011;43755;49.736;8.734;2023-04-06T02:18:06;7.00;;;6.40;;
11447;SDS011;43755;49.736;8.734;2023-04-06T02:20:09;7.60;;;6.18;;
11447;SDS011;43755;49.736;8.734;2023-04-06T02:22:11;6.50;;;5.88;;
11447;SDS011;43755;49.736;8.734;2023-04-06T02:24:13;8.00;;;6.80;;
11447;SDS011;43755;49.736;8.734;2023-04-06T02:26:14;6.95;;;6.32;;
11447;SDS011;43755;49.736;8.734;2023-04-06T02:28:17;7.13;;;6.13;;
11447;SDS011;43755;49.736;8.734;2023-04-06T02:30:18;6.95;;;5.82;;
11447;SDS011;43755;49.736;8.734;2023-04-06T02:32:20;7.72;;;5.93;;
11447;SDS011;43755;49.736;8.734;2023-04-06T02:34:21;7.38;;;6.68;;
11447;SDS011;43755;49.736;8.734;2023-04-06T02:36:23;10.35;;;5.95;;
11447;SDS011;43755;49.736;8.734;2023-04-06T02:38:24;7.53;;;6.35;;
11447;SDS011;43755;49.736;8.734;2023-04-06T02:40:26;8.02;;;6.80;;
11447;SDS011;43755;49.736;8.734;2023-04-06T02:42:27;7.90;;;6.50;;
11447;SDS011;43755;49.736;8.734;2023-04-06T02:44:30;6.45;;;5.85;;
11447;SDS011;43755;49.736;8.734;2023-04-06T02:46:32;7.18;;;6.47;;
11447;SDS011;43755;49.736;8.734;2023-04-06T02:48:33;7.63;;;6.22;;
11447;SDS011;43755;49.736;8.734;2023-04-06T02:50:36;7.55;;;6.70;;
11447;SDS011;43755;49.736;8.734;2023-04-06T02:52:37;7.43;;;6.63;;
11447;SDS011;43755;49.736;8.734;2023-04-06T02:54:39;8.75;;;6.70;;
11447;SDS011;43755;49.736;8.734;2023-04-06T02:56:40;7.60;;;6.85;;
11447;SDS011;43755;49.736;8.734;2023-04-06T02:58:42;8.02;;;6.22;;
11447;SDS011;43755;49.736;8.734;2023-04-06T03:00:45;8.10;;;6.35;;
11447;SDS011;43755;49.736;8.734;2023-04-06T03:02:46;6.65;;;5.95;;
11447;SDS011;43755;49.736;8.734;2023-04-06T03:04:48;7.95;;;5.75;;
11447;SDS011;43755;49.736;8.734;2023-04-06T03:06:49;7.93;;;6.07;;
11447;SDS011;43755;49.736;8.734;2023-04-06T03:08:51;8.73;;;6.47;;
11447;SDS011;43755;49.736;8.734;2023-04-06T03:10:52;6.85;;;6.15;;
11447;SDS011;43755;49.736;8.734;2023-04-06T03:12:53;7.57;;;6.35;;
11447;SDS011;43755;49.736;8.734;2023-04-06T03:14:55;9.38;;;6.93;;
11447;SDS011;43755;49.736;8.734;2023-04-06T03:16:58;8.25;;;6.78;;
11447;SDS011;43755;49.736;8.734;2023-04-06T03:18:59;7.07;;;5.85;;
11447;SDS011;43755;49.736;8.734;2023-04-06T03:21:01;7.53;;;6.80;;
11447;SDS011;43755;49.736;8.734;2023-04-06T03:23:02;9.20;;;6.70;;
11447;SDS011;43755;49.736;8.734;2023-04-06T03:25:04;8.73;;;7.10;;
11447;SDS011;43755;49.736;8.734;2023-04-06T03:27:06;8.55;;;6.78;;
11447;SDS011;43755;49.736;8.734;2023-04-06T03:29:08;9.32;;;6.78;;
11447;SDS011;43755;49.736;8.734;2023-04-06T03:31:09;7.68;;;6.88;;
11447;SDS011;43755;49.736;8.734;2023-04-06T03:33:12;36.15;;;27.05;;
11447;SDS011;43755;49.736;8.734;2023-04-06T03:35:14;18.50;;;15.50;;
11447;SDS011;43755;49.736;8.734;2023-04-06T03:37:15;9.18;;;8.18;;
11447;SDS011;43755;49.736;8.734;2023-04-06T03:39:17;9.05;;;8.15;;
11447;SDS011;43755;49.736;8.734;2023-04-06T03:41:18;8.85;;;8.02;;
11447;SDS011;43755;49.736;8.734;2023-04-06T03:43:20;10.55;;;9.50;;
11447;SDS011;43755;49.736;8.734;2023-04-06T03:45:21;9.93;;;9.02;;
11447;SDS011;43755;49.736;8.734;2023-04-06T03:47:23;9.32;;;8.38;;
11447;SDS011;43755;49.736;8.734;2023-04-06T03:49:25;9.73;;;8.10;;
11447;SDS011;43755;49.736;8.734;2023-04-06T03:51:27;8.85;;;8.02;;
11447;SDS011;43755;49.736;8.734;2023-04-06T03:53:29;9.98;;;8.35;;
11447;SDS011;43755;49.736;8.734;2023-04-06T03:55:30;9.73;;;8.75;;
11447;SDS011;43755;49.736;8.734;2023-04-06T03:57:32;9.70;;;8.77;;
11447;SDS011;43755;49.736;8.734;2023-04-06T03:59:34;10.23;;;9.18;;
11447;SDS011;43755;49.736;8.734;2023-04-06T04:01:35;9.48;;;8.50;;
11447;SDS011;43755;49.736;8.734;2023-04-06T04:03:37;13.27;;;11.88;;
11447;SDS011;43755;49.736;8.734;2023-04-06T04:05:39;17.52;;;15.60;;
11447;SDS011;43755;49.736;8.734;2023-04-06T04:07:41;18.80;;;16.90;;
11447;SDS011;43755;49.736;8.734;2023-04-06T04:09:42;17.52;;;15.68;;
11447;SDS011;43755;49.736;8.734;2023-04-06T04:11:44;16.25;;;14.05;;
11447;SDS011;43755;49.736;8.734;2023-04-06T04:13:46;10.90;;;9.80;;
11447;SDS011;43755;49.736;8.734;2023-04-06T04:15:47;11.05;;;9.82;;
11447;SDS011;43755;49.736;8.734;2023-04-06T04:17:48;11.05;;;9.93;;
11447;SDS011;43755;49.736;8.734;2023-04-06T04:19:50;11.52;;;9.70;;
11447;SDS011;43755;49.736;8.734;2023-04-06T04:21:53;11.15;;;9.98;;
11447;SDS011;43755;49.736;8.734;2023-04-06T04:23:54;11.45;;;8.88;;
11447;SDS011;43755;49.736;8.734;2023-04-06T04:25:56;10.70;;;9.00;;
11447;SDS011;43755;49.736;8.734;2023-04-06T04:27:58;9.27;;;8.27;;
11447;SDS011;43755;49.736;8.734;2023-04-06T04:30:00;13.63;;;9.20;;
11447;SDS011;43755;49.736;8.734;2023-04-06T04:32:01;11.90;;;9.82;;
11447;SDS011;43755;49.736;8.734;2023-04-06T04:34:03;13.48;;;9.05;;
11447;SDS011;43755;49.736;8.734;2023-04-06T04:36:06;11.02;;;8.88;;
11447;SDS011;43755;49.736;8.734;2023-04-06T04:38:11;12.65;;;8.73;;
11447;SDS011;43755;49.736;8.734;2023-04-06T04:40:12;10.18;;;9.10;;
11447;SDS011;43755;49.736;8.734;2023-04-06T04:42:14;10.45;;;9.18;;
11447;SDS011;43755;49.736;8.734;2023-04-06T04:44:15;11.77;;;8.38;;
11447;SDS011;43755;49.736;8.734;2023-04-06T04:46:17;11.35;;;8.82;;
11447;SDS011;43755;49.736;8.734;2023-04-06T04:48:18;10.45;;;8.35;;
11447;SDS011;43755;49.736;8.734;2023-04-06T04:50:20;10.73;;;8.60;;
11447;SDS011;43755;49.736;8.734;2023-04-06T04:52:21;9.73;;;8.60;;
11447;SDS011;43755;49.736;8.734;2023-04-06T04:54:24;9.90;;;8.68;;
11447;SDS011;43755;49.736;8.734;2023-04-06T04:56:26;11.00;;;8.52;;
11447;SDS011;43755;49.736;8.734;2023-04-06T04:58:28;12.32;;;8.85;;
11447;SDS011;43755;49.736;8.734;2023-04-06T05:00:30;10.05;;;8.40;;
11447;SDS011;43755;49.736;8.734;2023-04-06T05:02:31;13.32;;;9.35;;
11447;SDS011;43755;49.736;8.734;2023-04-06T05:04:33;12.35;;;9.18;;
11447;SDS011;43755;49.736;8.734;2023-04-06T05:06:34;10.68;;;8.85;;
11447;SDS011;43755;49.736;8.734;2023-04-06T05:08:36;10.93;;;8.82;;
11447;SDS011;43755;49.736;8.734;2023-04-06T05:10:39;10.90;;;8.90;;
11447;SDS011;43755;49.736;8.734;2023-04-06T05:12:40;11.20;;;9.23;;
11447;SDS011;43755;49.736;8.734;2023-04-06T05:14:42;10.93;;;9.70;;
11447;SDS011;43755;49.736;8.734;2023-04-06T05:16:43;12.00;;;9.55;;
11447;SDS011;43755;49.736;8.734;2023-04-06T05:18:45;12.75;;;10.07;;
11447;SDS011;43755;49.736;8.734;2023-04-06T05:20:48;13.68;;;9.50;;
11447;SDS011;43755;49.736;8.734;2023-04-06T05:22:51;15.50;;;10.27;;
11447;SDS011;43755;49.736;8.734;2023-04-06T05:24:53;15.02;;;10.20;;
11447;SDS011;43755;49.736;8.734;2023-04-06T05:26:56;15.63;;;10.90;;
11447;SDS011;43755;49.736;8.734;2023-04-06T05:28:57;16.92;;;11.70;;
11447;SDS011;43755;49.736;8.734;2023-04-06T05:30:59;14.55;;;11.00;;
11447;SDS011;43755;49.736;8.734;2023-04-06T05:33:00;13.32;;;10.32;;
11447;SDS011;43755;49.736;8.734;2023-04-06T05:35:02;11.65;;;9.60;;
11447;SDS011;43755;49.736;8.734;2023-04-06T05:37:04;13.90;;;9.57;;
11447;SDS011;43755;49.736;8.734;2023-04-06T05:39:05;10.90;;;9.23;;
11447;SDS011;43755;49.736;8.734;2023-04-06T05:41:07;10.60;;;8.55;;
11447;SDS011;43755;49.736;8.734;2023-04-06T05:43:10;10.45;;;9.35;;
11447;SDS011;43755;49.736;8.734;2023-04-06T05:45:11;11.15;;;9.35;;
11447;SDS011;43755;49.736;8.734;2023-04-06T05:47:16;12.10;;;9.05;;
11447;SDS011;43755;49.736;8.734;2023-04-06T05:49:18;12.45;;;9.73;;
11447;SDS011;43755;49.736;8.734;2023-04-06T05:51:19;9.23;;;7.70;;
11447;SDS011;43755;49.736;8.734;2023-04-06T05:53:21;10.05;;;8.15;;
11447;SDS011;43755;49.736;8.734;2023-04-06T05:55:22;7.25;;;6.50;;
11447;SDS011;43755;49.736;8.734;2023-04-06T05:57:24;14.63;;;8.40;;
11447;SDS011;43755;49.736;8.734;2023-04-06T05:59:26;8.57;;;7.57;;
11447;SDS011;43755;49.736;8.734;2023-04-06T06:01:28;9.57;;;7.72;;
11447;SDS011;43755;49.736;8.734;2023-04-06T06:03:30;9.07;;;7.30;;
11447;SDS011;43755;49.736;8.734;2023-04-06T06:05:31;8.63;;;6.72;;
11447;SDS011;43755;49.736;8.734;2023-04-06T06:07:33;7.38;;;6.22;;
11447;SDS011;43755;49.736;8.734;2023-04-06T06:09:35;6.90;;;6.20;;
11447;SDS011;43755;49.736;8.734;2023-04-06T06:11:36;8.02;;;6.63;;
11447;SDS011;43755;49.736;8.734;2023-04-06T06:13:38;6.60;;;5.70;;
11447;SDS011;43755;49.736;8.734;2023-04-06T06:15:41;6.28;;;5.57;;
11447;SDS011;43755;49.736;8.734;2023-04-06T06:17:43;7.50;;;5.75;;
11447;SDS011;43755;49.736;8.734;2023-04-06T06:19:44;7.10;;;5.95;;
11447;SDS011;43755;49.736;8.734;2023-04-06T06:21:46;5.90;;;5.25;;
11447;SDS011;43755;49.736;8.734;2023-04-06T06:23:47;7.05;;;6.25;;
11447;SDS011;43755;49.736;8.734;2023-04-06T06:25:50;7.78;;;6.03;;
11447;SDS011;43755;49.736;8.734;2023-04-06T06:27:51;9.02;;;5.63;;
11447;SDS011;43755;49.736;8.734;2023-04-06T06:29:53;6.93;;;5.68;;
11447;SDS011;43755;49.736;8.734;2023-04-06T06:31:55;6.90;;;5.85;;
11447;SDS011;43755;49.736;8.734;2023-04-06T06:33:57;6.13;;;5.53;;
11447;SDS011;43755;49.736;8.734;2023-04-06T06:35:59;6.15;;;5.57;;
11447;SDS011;43755;49.736;8.734;2023-04-06T06:38:00;6.45;;;5.72;;
11447;SDS011;43755;49.736;8.734;2023-04-06T06:40:03;8.73;;;5.80;;
11447;SDS011;43755;49.736;8.734;2023-04-06T06:42:05;7.80;;;5.82;;
11447;SDS011;43755;49.736;8.734;2023-04-06T06:44:06;6.43;;;5.82;;
11447;SDS011;43755;49.736;8.734;2023-04-06T06:46:08;6.65;;;6.00;;
11447;SDS011;43755;49.736;8.734;2023-04-06T06:48:11;8.27;;;5.80;;
11447;SDS011;43755;49.736;8.734;2023-04-06T06:50:12;9.15;;;5.82;;
11447;SDS011;43755;49.736;8.734;2023-04-06T06:52:14;7.20;;;6.45;;
11447;SDS011;43755;49.736;8.734;2023-04-06T06:54:15;6.07;;;5.53;;
11447;SDS011;43755;49.736;8.734;2023-04-06T06:56:17;7.05;;;6.38;;
11447;SDS011;43755;49.736;8.734;2023-04-06T06:58:19;7.13;;;5.57;;
11447;SDS011;43755;49.736;8.734;2023-04-06T07:00:21;7.72;;;6.15;;
11447;SDS011;43755;49.736;8.734;2023-04-06T07:02:22;6.10;;;5.50;;
11447;SDS011;43755;49.736;8.734;2023-04-06T07:04:26;6.68;;;5.97;;
11447;SDS011;43755;49.736;8.734;2023-04-06T07:06:27;6.85;;;5.60;;
11447;SDS011;43755;49.736;8.734;2023-04-06T07:08:28;7.05;;;5.50;;
11447;SDS011;43755;49.736;8.734;2023-04-06T07:10:30;6.90;;;5.85;;
11447;SDS011;43755;49.736;8.734;2023-04-06T07:12:32;7.85;;;5.30;;
11447;SDS011;43755;49.736;8.734;2023-04-06T07:14:33;5.47;;;4.97;;
11447;SDS011;43755;49.736;8.734;2023-04-06T07:16:34;6.38;;;5.70;;
11447;SDS011;43755;49.736;8.734;2023-04-06T07:18:36;7.10;;;5.40;;
11447;SDS011;43755;49.736;8.734;2023-04-06T07:20:39;5.60;;;5.10;;
11447;SDS011;43755;49.736;8.734;2023-04-06T07:22:42;5.97;;;5.35;;
11447;SDS011;43755;49.736;8.734;2023-04-06T07:24:44;6.00;;;5.13;;
11447;SDS011;43755;49.736;8.734;2023-04-06T07:26:45;6.03;;;5.43;;
11447;SDS011;43755;49.736;8.734;2023-04-06T07:28:47;6.00;;;4.90;;
11447;SDS011;43755;49.736;8.734;2023-04-06T07:30:48;8.93;;;5.70;;
11447;SDS011;43755;49.736;8.734;2023-04-06T07:32:50;6.00;;;5.38;;
11447;SDS011;43755;49.736;8.734;2023-04-06T07:34:51;7.07;;;5.80;;
11447;SDS011;43755;49.736;8.734;2023-04-06T07:36:54;6.43;;;5.65;;
11447;SDS011;43755;49.736;8.734;2023-04-06T07:38:57;6.55;;;5.40;;
11447;SDS011;43755;49.736;8.734;2023-04-06T07:40:59;8.45;;;6.00;;
11447;SDS011;43755;49.736;8.734;2023-04-06T07:43:03;6.35;;;5.75;;
11447;SDS011;43755;49.736;8.734;2023-04-06T07:45:05;6.80;;;6.03;;
11447;SDS011;43755;49.736;8.734;2023-04-06T07:47:07;6.40;;;5.80;;
11447;SDS011;43755;49.736;8.734;2023-04-06T07:49:09;6.32;;;5.47;;
11447;SDS011;43755;49.736;8.734;2023-04-06T07:51:10;6.90;;;6.20;;
11447;SDS011;43755;49.736;8.734;2023-04-06T07:53:15;7.70;;;6.00;;
11447;SDS011;43755;49.736;8.734;2023-04-06T07:55:17;6.85;;;6.13;;
11447;SDS011;43755;49.736;8.734;2023-04-06T07:57:18;6.80;;;5.55;;
11447;SDS011;43755;49.736;8.734;2023-04-06T07:59:20;8.50;;;5.68;;
11447;SDS011;43755;49.736;8.734;2023-04-06T08:01:21;9.70;;;6.38;;
11447;SDS011;43755;49.736;8.734;2023-04-06T08:03:23;7.22;;;5.78;;
11447;SDS011;43755;49.736;8.734;2023-04-06T08:05:25;6.35;;;5.75;;
11447;SDS011;43755;49.736;8.734;2023-04-06T08:07:27;6.90;;;5.70;;
11447;SDS011;43755;49.736;8.734;2023-04-06T08:09:30;7.10;;;5.75;;
11447;SDS011;43755;49.736;8.734;2023-04-06T08:11:31;7.63;;;6.32;;
11447;SDS011;43755;49.736;8.734;2023-04-06T08:13:33;7.05;;;5.88;;
11447;SDS011;43755;49.736;8.734;2023-04-06T08:15:35;7.10;;;5.65;;
11447;SDS011;43755;49.736;8.734;2023-04-06T08:17:36;6.47;;;5.85;;
11447;SDS011;43755;49.736;8.734;2023-04-06T08:19:38;6.65;;;5.75;;
11447;SDS011;43755;49.736;8.734;2023-04-06T08:21:39;6.15;;;5.50;;
11447;SDS011;43755;49.736;8.734;2023-04-06T08:23:41;6.85;;;5.28;;
11447;SDS011;43755;49.736;8.734;2023-04-06T08:25:44;6.57;;;5.65;;
11447;SDS011;43755;49.736;8.734;2023-04-06T08:27:46;6.60;;;5.57;;
11447;SDS011;43755;49.736;8.734;2023-04-06T08:29:49;8.90;;;5.85;;
11447;SDS011;43755;49.736;8.734;2023-04-06T08:31:51;6.38;;;5.72;;
11447;SDS011;43755;49.736;8.734;2023-04-06T08:33:53;7.72;;;5.25;;
11447;SDS011;43755;49.736;8.734;2023-04-06T08:35:54;9.15;;;5.35;;
11447;SDS011;43755;49.736;8.734;2023-04-06T08:37:56;7.32;;;5.35;;
11447;SDS011;43755;49.736;8.734;2023-04-06T08:39:58;7.32;;;5.32;;
11447;SDS011;43755;49.736;8.734;2023-04-06T08:42:01;8.43;;;6.20;;
11447;SDS011;43755;49.736;8.734;2023-04-06T08:44:03;6.90;;;5.57;;
11447;SDS011;43755;49.736;8.734;2023-04-06T08:46:07;9.23;;;6.05;;
11447;SDS011;43755;49.736;8.734;2023-04-06T08:48:10;7.65;;;5.43;;
11447;SDS011;43755;49.736;8.734;2023-04-06T08:50:12;6.80;;;5.60;;
11447;SDS011;43755;49.736;8.734;2023-04-06T08:52:15;6.82;;;5.65;;
11447;SDS011;43755;49.736;8.734;2023-04-06T08:54:19;8.63;;;5.53;;
11447;SDS011;43755;49.736;8.734;2023-04-06T08:56:20;7.18;;;5.70;;
11447;SDS011;43755;49.736;8.734;2023-04-06T08:58:24;9.85;;;5.95;;
11447;SDS011;43755;49.736;8.734;2023-04-06T09:00:29;8.57;;;6.03;;
11447;SDS011;43755;49.736;8.734;2023-04-06T09:02:31;10.48;;;6.70;;
11447;SDS011;43755;49.736;8.734;2023-04-06T09:04:34;9.00;;;6.50;;
11447;SDS011;43755;49.736;8.734;2023-04-06T09:06:37;6.40;;;5.70;;
11447;SDS011;43755;49.736;8.734;2023-04-06T09:08:40;9.90;;;6.60;;
11447;SDS011;43755;49.736;8.734;2023-04-06T09:10:42;8.38;;;6.10;;
11447;SDS011;43755;49.736;8.734;2023-04-06T09:12:45;8.50;;;6.75;;
11447;SDS011;43755;49.736;8.734;2023-04-06T09:14:48;7.82;;;5.95;;
11447;SDS011;43755;49.736;8.734;2023-04-06T09:16:49;8.52;;;7.00;;
11447;SDS011;43755;49.736;8.734;2023-04-06T09:18:51;8.07;;;6.47;;
11447;SDS011;43755;49.736;8.734;2023-04-06T09:20:56;9.10;;;6.90;;
11447;SDS011;43755;49.736;8.734;2023-04-06T09:22:58;9.80;;;7.00;;
11447;SDS011;43755;49.736;8.734;2023-04-06T09:25:00;8.10;;;6.78;;
11447;SDS011;43755;49.736;8.734;2023-04-06T09:27:01;9.65;;;6.72;;
11447;SDS011;43755;49.736;8.734;2023-04-06T09:29:03;8.10;;;6.25;;
11447;SDS011;43755;49.736;8.734;2023-04-06T09:31:07;6.97;;;6.25;;
11447;SDS011;43755;49.736;8.734;2023-04-06T09:33:09;9.35;;;7.00;;
11447;SDS011;43755;49.736;8.734;2023-04-06T09:35:11;9.50;;;6.53;;
11447;SDS011;43755;49.736;8.734;2023-04-06T09:37:13;7.55;;;6.60;;
11447;SDS011;43755;49.736;8.734;2023-04-06T09:39:15;8.45;;;7.13;;
11447;SDS011;43755;49.736;8.734;2023-04-06T09:41:22;10.27;;;6.63;;
11447;SDS011;43755;49.736;8.734;2023-04-06T09:43:25;10.88;;;6.35;;
11447;SDS011;43755;49.736;8.734;2023-04-06T09:45:27;9.43;;;6.90;;
11447;SDS011;43755;49.736;8.734;2023-04-06T09:47:32;8.20;;;6.82;;
11447;SDS011;43755;49.736;8.734;2023-04-06T09:49:34;9.82;;;7.00;;
11447;SDS011;43755;49.736;8.734;2023-04-06T09:51:37;10.45;;;6.60;;
11447;SDS011;43755;49.736;8.734;2023-04-06T09:53:39;7.10;;;6.20;;
11447;SDS011;43755;49.736;8.734;2023-04-06T09:55:45;7.93;;;6.82;;
11447;SDS011;43755;49.736;8.734;2023-04-06T09:57:55;10.27;;;7.13;;
11447;SDS011;43755;49.736;8.734;2023-04-06T10:00:03;8.57;;;6.97;;
11447;SDS011;43755;49.736;8.734;2023-04-06T10:02:12;9.23;;;6.70;;
11447;SDS011;43755;49.736;8.734;2023-04-06T10:04:27;6.97;;;6.28;;
11447;SDS011;43755;49.736;8.734;2023-04-06T10:06:35;7.22;;;6.32;;
11447;SDS011;43755;49.736;8.734;2023-04-06T10:08:38;7.70;;;6.65;;
11447;SDS011;43755;49.736;8.734;2023-04-06T10:10:41;10.70;;;6.78;;
11447;SDS011;43755;49.736;8.734;2023-04-06T10:12:43;7.85;;;6.50;;
11447;SDS011;43755;49.736;8.734;2023-04-06T10:14:46;7.18;;;6.47;;
11447;SDS011;43755;49.736;8.734;2023-04-06T10:16:48;7.18;;;6.47;;
11447;SDS011;43755;49.736;8.734;2023-04-06T10:18:52;7.93;;;6.47;;
11447;SDS011;43755;49.736;8.734;2023-04-06T10:21:01;6.72;;;5.93;;
11447;SDS011;43755;49.736;8.734;2023-04-06T10:23:08;8.23;;;6.07;;
11447;SDS011;43755;49.736;8.734;2023-04-06T10:25:15;6.43;;;5.72;;
11447;SDS011;43755;49.736;8.734;2023-04-06T10:27:26;8.13;;;5.85;;
11447;SDS011;43755;49.736;8.734;2023-04-06T10:29:40;6.88;;;5.95;;
11447;SDS011;43755;49.736;8.734;2023-04-06T10:31:43;6.07;;;5.05;;
11447;SDS011;43755;49.736;8.734;2023-04-06T10:33:53;5.53;;;5.03;;
11447;SDS011;43755;49.736;8.734;2023-04-06T10:35:55;6.53;;;5.20;;
11447;SDS011;43755;49.736;8.734;2023-04-06T10:38:01;6.38;;;5.75;;
11447;SDS011;43755;49.736;8.734;2023-04-06T10:40:05;5.47;;;4.88;;
11447;SDS011;43755;49.736;8.734;2023-04-06T10:42:18;7.47;;;5.30;;
11447;SDS011;43755;49.736;8.734;2023-04-06T10:44:24;5.28;;;4.60;;
11447;SDS011;43755;49.736;8.734;2023-04-06T10:46:26;6.70;;;5.65;;
11447;SDS011;43755;49.736;8.734;2023-04-06T10:48:37;10.50;;;5.72;;
11447;SDS011;43755;49.736;8.734;2023-04-06T10:50:40;5.72;;;5.15;;
11447;SDS011;43755;49.736;8.734;2023-04-06T10:52:43;5.72;;;5.13;;
11447;SDS011;43755;49.736;8.734;2023-04-06T10:54:47;5.95;;;5.35;;
11447;SDS011;43755;49.736;8.734;2023-04-06T10:56:48;6.10;;;5.50;;
11447;SDS011;43755;49.736;8.734;2023-04-06T10:58:51;6.63;;;5.95;;
11447;SDS011;43755;49.736;8.734;2023-04-06T11:00:55;6.55;;;5.70;;
11447;SDS011;43755;49.736;8.734;2023-04-06T11:02:58;7.40;;;6.13;;
11447;SDS011;43755;49.736;8.734;2023-04-06T11:05:00;6.95;;;6.25;;
11447;SDS011;43755;49.736;8.734;2023-04-06T11:07:02;8.75;;;6.15;;
11447;SDS011;43755;49.736;8.734;2023-04-06T11:09:03;8.02;;;6.55;;
11447;SDS011;43755;49.736;8.734;2023-04-06T11:11:07;7.28;;;5.78;;
11447;SDS011;43755;49.736;8.734;2023-04-06T11:13:15;7.35;;;6.38;;
11447;SDS011;43755;49.736;8.734;2023-04-06T11:15:17;6.97;;;6.28;;
11447;SDS011;43755;49.736;8.734;2023-04-06T11:17:24;7.82;;;7.03;;
11447;SDS011;43755;49.736;8.734;2023-04-06T11:19:26;9.15;;;7.00;;
11447;SDS011;43755;49.736;8.734;2023-04-06T11:21:32;10.55;;;7.45;;
11447;SDS011;43755;49.736;8.734;2023-04-06T11:23:35;7.57;;;6.72;;
11447;SDS011;43755;49.736;8.734;2023-04-06T11:25:36;8.38;;;6.60;;
11447;SDS011;43755;49.736;8.734;2023-04-06T11:27:39;7.20;;;6.50;;
11447;SDS011;43755;49.736;8.734;2023-04-06T11:29:41;9.00;;;7.25;;
11447;SDS011;43755;49.736;8.734;2023-04-06T11:31:44;7.90;;;7.10;;
11447;SDS011;43755;49.736;8.734;2023-04-06T11:33:47;7.45;;;6.63;;
11447;SDS011;43755;49.736;8.734;2023-04-06T11:35:57;10.82;;;7.05;;
11447;SDS011;43755;49.736;8.734;2023-04-06T11:37:59;7.57;;;6.47;;
11447;SDS011;43755;49.736;8.734;2023-04-06T11:40:04;7.10;;;5.93;;
11447;SDS011;43755;49.736;8.734;2023-04-06T11:42:09;7.57;;;5.80;;
11447;SDS011;43755;49.736;8.734;2023-04-06T11:44:12;7.65;;;6.80;;
11447;SDS011;43755;49.736;8.734;2023-04-06T11:46:17;7.60;;;6.28;;
11447;SDS011;43755;49.736;8.734;2023-04-06T11:48:19;7.90;;;6.38;;
11447;SDS011;43755;49.736;8.734;2023-04-06T11:50:22;7.20;;;6.45;;
11447;SDS011;43755;49.736;8.734;2023-04-06T11:52:24;7.43;;;6.00;;
11447;SDS011;43755;49.736;8.734;2023-04-06T11:54:31;7.05;;;6.38;;
11447;SDS011;43755;49.736;8.734;2023-04-06T11:56:33;8.40;;;6.05;;
11447;SDS011;43755;49.736;8.734;2023-04-06T11:58:35;7.93;;;6.00;;
11447;SDS011;43755;49.736;8.734;2023-04-06T12:00:38;6.07;;;5.47;;
11447;SDS011;43755;49.736;8.734;2023-04-06T12:02:45;6.88;;;6.00;;
11447;SDS011;43755;49.736;8.734;2023-04-06T12:04:48;7.57;;;5.57;;
11447;SDS011;43755;49.736;8.734;2023-04-06T12:06:49;6.28;;;5.53;;
11447;SDS011;43755;49.736;8.734;2023-04-06T12:08:51;6.70;;;5.97;;
11447;SDS011;43755;49.736;8.734;2023-04-06T12:10:52;6.32;;;5.72;;
11447;SDS011;43755;49.736;8.734;2023-04-06T12:12:54;7.15;;;5.65;;
11447;SDS011;43755;49.736;8.734;2023-04-06T12:14:56;9.30;;;6.32;;
11447;SDS011;43755;49.736;8.734;2023-04-06T12:16:59;8.27;;;6.00;;